sensor_id;sensor_type;location;lat;lon;timestamp;P1;durP1;ratioP1;P2;durP2;ratioP2
10588;SDS011;5342;55.676;13.346;2022-10-17T00:00:30;8.67;;;2.47;;
10588;SDS011;5342;55.676;13.346;2022-10-17T00:02:56;14.13;;;2.73;;
10588;SDS011;5342;55.676;13.346;2022-10-17T00:05:23;12.70;;;2.93;;
10588;SDS011;5342;55.676;13.346;2022-10-17T00:07:51;10.47;;;3.37;;
10588;SDS011;5342;55.676;13.346;2022-10-17T00:10:18;12.23;;;3.10;;
10588;SDS011;5342;55.676;13.346;2022-10-17T00:12:45;11.70;;;2.70;;
10588;SDS011;5342;55.676;13.346;2022-10-17T00:15:14;10.93;;;2.27;;
10588;SDS011;5342;55.676;13.346;2022-10-17T00:17:42;8.57;;;2.10;;
10588;SDS011;5342;55.676;13.346;2022-10-17T00:20:08;9.90;;;2.80;;
10588;SDS011;5342;55.676;13.346;2022-10-17T00:22:35;12.93;;;3.13;;
10588;SDS011;5342;55.676;13.346;2022-10-17T00:25:01;10.80;;;2.43;;
10588;SDS011;5342;55.676;13.346;2022-10-17T00:27:27;9.30;;;2.87;;
10588;SDS011;5342;55.676;13.346;2022-10-17T00:29:54;10.47;;;2.10;;
10588;SDS011;5342;55.676;13.346;2022-10-17T00:32:20;8.27;;;2.40;;
10588;SDS011;5342;55.676;13.346;2022-10-17T00:34:47;13.37;;;2.60;;
10588;SDS011;5342;55.676;13.346;2022-10-17T00:37:13;11.43;;;3.50;;
10588;SDS011;5342;55.676;13.346;2022-10-17T00:39:39;8.17;;;2.83;;
10588;SDS011;5342;55.676;13.346;2022-10-17T00:42:05;9.23;;;2.70;;
10588;SDS011;5342;55.676;13.346;2022-10-17T00:46:58;14.40;;;2.70;;
10588;SDS011;5342;55.676;13.346;2022-10-17T00:49:29;11.30;;;2.60;;
10588;SDS011;5342;55.676;13.346;2022-10-17T00:51:58;12.40;;;2.73;;
10588;SDS011;5342;55.676;13.346;2022-10-17T00:54:30;13.87;;;3.10;;
10588;SDS011;5342;55.676;13.346;2022-10-17T00:57:04;8.70;;;2.33;;
10588;SDS011;5342;55.676;13.346;2022-10-17T00:59:32;12.60;;;2.53;;
10588;SDS011;5342;55.676;13.346;2022-10-17T01:02:14;10.80;;;2.87;;
10588;SDS011;5342;55.676;13.346;2022-10-17T01:04:42;11.83;;;3.47;;
10588;SDS011;5342;55.676;13.346;2022-10-17T01:07:11;12.00;;;2.50;;
10588;SDS011;5342;55.676;13.346;2022-10-17T01:09:37;12.67;;;3.33;;
10588;SDS011;5342;55.676;13.346;2022-10-17T01:26:43;8.10;;;3.37;;
10588;SDS011;5342;55.676;13.346;2022-10-17T01:34:39;14.60;;;2.60;;
10588;SDS011;5342;55.676;13.346;2022-10-17T01:37:41;10.83;;;2.67;;
10588;SDS011;5342;55.676;13.346;2022-10-17T01:40:24;11.70;;;3.03;;
10588;SDS011;5342;55.676;13.346;2022-10-17T01:42:57;13.00;;;2.63;;
10588;SDS011;5342;55.676;13.346;2022-10-17T01:48:22;12.03;;;2.47;;
10588;SDS011;5342;55.676;13.346;2022-10-17T01:50:52;12.53;;;3.03;;
10588;SDS011;5342;55.676;13.346;2022-10-17T01:53:25;11.43;;;2.73;;
10588;SDS011;5342;55.676;13.346;2022-10-17T01:55:55;12.67;;;2.50;;
10588;SDS011;5342;55.676;13.346;2022-10-17T01:58:26;12.53;;;2.47;;
10588;SDS011;5342;55.676;13.346;2022-10-17T02:00:55;8.70;;;2.30;;
10588;SDS011;5342;55.676;13.346;2022-10-17T02:03:24;12.10;;;2.73;;
10588;SDS011;5342;55.676;13.346;2022-10-17T02:05:53;9.47;;;3.03;;
10588;SDS011;5342;55.676;13.346;2022-10-17T02:08:39;8.63;;;2.43;;
10588;SDS011;5342;55.676;13.346;2022-10-17T02:11:25;7.63;;;2.70;;
10588;SDS011;5342;55.676;13.346;2022-10-17T02:21:52;18.43;;;3.13;;
10588;SDS011;5342;55.676;13.346;2022-10-17T02:27:03;16.67;;;2.73;;
10588;SDS011;5342;55.676;13.346;2022-10-17T02:29:35;18.23;;;3.33;;
10588;SDS011;5342;55.676;13.346;2022-10-17T02:32:10;14.03;;;3.07;;
10588;SDS011;5342;55.676;13.346;2022-10-17T02:34:54;14.47;;;3.20;;
10588;SDS011;5342;55.676;13.346;2022-10-17T02:37:24;13.90;;;3.67;;
10588;SDS011;5342;55.676;13.346;2022-10-17T02:39:53;18.00;;;3.97;;
10588;SDS011;5342;55.676;13.346;2022-10-17T02:42:22;13.63;;;3.33;;
10588;SDS011;5342;55.676;13.346;2022-10-17T02:44:50;15.43;;;3.63;;
10588;SDS011;5342;55.676;13.346;2022-10-17T02:49:52;12.67;;;3.20;;
10588;SDS011;5342;55.676;13.346;2022-10-17T02:55:13;12.87;;;2.80;;
10588;SDS011;5342;55.676;13.346;2022-10-17T02:57:49;13.07;;;2.70;;
10588;SDS011;5342;55.676;13.346;2022-10-17T03:00:22;13.20;;;2.57;;
10588;SDS011;5342;55.676;13.346;2022-10-17T03:02:51;17.40;;;3.30;;
10588;SDS011;5342;55.676;13.346;2022-10-17T03:05:20;11.37;;;2.60;;
10588;SDS011;5342;55.676;13.346;2022-10-17T03:07:51;8.90;;;2.37;;
10588;SDS011;5342;55.676;13.346;2022-10-17T03:10:18;12.30;;;2.10;;
10588;SDS011;5342;55.676;13.346;2022-10-17T03:12:44;11.83;;;2.20;;
10588;SDS011;5342;55.676;13.346;2022-10-17T03:15:11;11.40;;;2.90;;
10588;SDS011;5342;55.676;13.346;2022-10-17T03:17:37;7.73;;;2.73;;
10588;SDS011;5342;55.676;13.346;2022-10-17T03:20:04;9.67;;;2.30;;
10588;SDS011;5342;55.676;13.346;2022-10-17T03:22:31;9.50;;;2.67;;
10588;SDS011;5342;55.676;13.346;2022-10-17T03:24:57;10.27;;;2.00;;
10588;SDS011;5342;55.676;13.346;2022-10-17T03:27:24;13.27;;;3.40;;
10588;SDS011;5342;55.676;13.346;2022-10-17T03:29:50;12.03;;;3.37;;
10588;SDS011;5342;55.676;13.346;2022-10-17T03:32:16;11.33;;;2.33;;
10588;SDS011;5342;55.676;13.346;2022-10-17T03:34:42;12.47;;;2.73;;
10588;SDS011;5342;55.676;13.346;2022-10-17T03:37:08;14.80;;;2.77;;
10588;SDS011;5342;55.676;13.346;2022-10-17T03:39:34;13.90;;;3.60;;
10588;SDS011;5342;55.676;13.346;2022-10-17T03:42:00;7.80;;;2.00;;
10588;SDS011;5342;55.676;13.346;2022-10-17T03:44:27;9.10;;;2.27;;
10588;SDS011;5342;55.676;13.346;2022-10-17T03:46:53;9.23;;;2.90;;
10588;SDS011;5342;55.676;13.346;2022-10-17T03:49:19;10.50;;;2.93;;
10588;SDS011;5342;55.676;13.346;2022-10-17T03:51:45;11.07;;;3.00;;
10588;SDS011;5342;55.676;13.346;2022-10-17T03:54:11;9.97;;;2.50;;
10588;SDS011;5342;55.676;13.346;2022-10-17T03:56:38;8.73;;;2.50;;
10588;SDS011;5342;55.676;13.346;2022-10-17T03:59:04;10.10;;;2.53;;
10588;SDS011;5342;55.676;13.346;2022-10-17T04:01:30;9.53;;;2.87;;
10588;SDS011;5342;55.676;13.346;2022-10-17T04:03:56;7.67;;;2.67;;
10588;SDS011;5342;55.676;13.346;2022-10-17T04:06:22;14.97;;;4.17;;
10588;SDS011;5342;55.676;13.346;2022-10-17T04:08:48;14.73;;;3.00;;
10588;SDS011;5342;55.676;13.346;2022-10-17T04:11:18;12.83;;;2.80;;
10588;SDS011;5342;55.676;13.346;2022-10-17T04:13:46;12.50;;;2.77;;
10588;SDS011;5342;55.676;13.346;2022-10-17T04:16:13;19.77;;;3.70;;
10588;SDS011;5342;55.676;13.346;2022-10-17T04:18:42;14.60;;;2.83;;
10588;SDS011;5342;55.676;13.346;2022-10-17T04:21:09;12.43;;;2.93;;
10588;SDS011;5342;55.676;13.346;2022-10-17T04:23:36;11.10;;;2.73;;
10588;SDS011;5342;55.676;13.346;2022-10-17T04:26:02;13.63;;;2.43;;
10588;SDS011;5342;55.676;13.346;2022-10-17T04:28:30;10.70;;;2.90;;
10588;SDS011;5342;55.676;13.346;2022-10-17T04:30:59;8.53;;;2.90;;
10588;SDS011;5342;55.676;13.346;2022-10-17T04:33:27;13.30;;;4.10;;
10588;SDS011;5342;55.676;13.346;2022-10-17T04:35:56;14.40;;;3.13;;
10588;SDS011;5342;55.676;13.346;2022-10-17T04:38:34;10.20;;;3.00;;
10588;SDS011;5342;55.676;13.346;2022-10-17T04:41:01;17.77;;;3.13;;
10588;SDS011;5342;55.676;13.346;2022-10-17T04:43:30;13.77;;;3.37;;
10588;SDS011;5342;55.676;13.346;2022-10-17T04:45:57;13.00;;;3.70;;
10588;SDS011;5342;55.676;13.346;2022-10-17T04:48:24;12.20;;;2.90;;
10588;SDS011;5342;55.676;13.346;2022-10-17T04:51:00;18.60;;;3.80;;
10588;SDS011;5342;55.676;13.346;2022-10-17T04:53:32;12.40;;;3.13;;
10588;SDS011;5342;55.676;13.346;2022-10-17T04:56:00;14.97;;;3.47;;
10588;SDS011;5342;55.676;13.346;2022-10-17T04:58:29;13.87;;;3.50;;
10588;SDS011;5342;55.676;13.346;2022-10-17T05:00:55;14.77;;;2.90;;
10588;SDS011;5342;55.676;13.346;2022-10-17T05:03:21;9.83;;;3.30;;
10588;SDS011;5342;55.676;13.346;2022-10-17T05:05:47;14.93;;;3.23;;
10588;SDS011;5342;55.676;13.346;2022-10-17T05:08:13;13.70;;;3.63;;
10588;SDS011;5342;55.676;13.346;2022-10-17T05:10:40;10.40;;;3.17;;
10588;SDS011;5342;55.676;13.346;2022-10-17T05:13:08;12.73;;;2.87;;
10588;SDS011;5342;55.676;13.346;2022-10-17T05:15:35;15.27;;;3.47;;
10588;SDS011;5342;55.676;13.346;2022-10-17T05:18:02;14.90;;;3.57;;
10588;SDS011;5342;55.676;13.346;2022-10-17T05:20:30;15.47;;;3.67;;
10588;SDS011;5342;55.676;13.346;2022-10-17T05:23:00;10.23;;;3.60;;
10588;SDS011;5342;55.676;13.346;2022-10-17T05:25:26;19.40;;;4.50;;
10588;SDS011;5342;55.676;13.346;2022-10-17T05:27:53;15.13;;;4.53;;
10588;SDS011;5342;55.676;13.346;2022-10-17T05:30:19;13.73;;;4.37;;
10588;SDS011;5342;55.676;13.346;2022-10-17T05:32:45;16.63;;;4.87;;
10588;SDS011;5342;55.676;13.346;2022-10-17T05:35:11;13.23;;;4.50;;
10588;SDS011;5342;55.676;13.346;2022-10-17T05:37:37;19.13;;;5.43;;
10588;SDS011;5342;55.676;13.346;2022-10-17T05:40:04;20.97;;;4.90;;
10588;SDS011;5342;55.676;13.346;2022-10-17T05:42:30;24.08;;;6.82;;
10588;SDS011;5342;55.676;13.346;2022-10-17T05:44:56;19.57;;;6.23;;
10588;SDS011;5342;55.676;13.346;2022-10-17T05:47:23;16.50;;;5.03;;
10588;SDS011;5342;55.676;13.346;2022-10-17T05:49:49;19.60;;;5.03;;
10588;SDS011;5342;55.676;13.346;2022-10-17T05:52:15;15.10;;;5.03;;
10588;SDS011;5342;55.676;13.346;2022-10-17T05:54:41;16.03;;;6.50;;
10588;SDS011;5342;55.676;13.346;2022-10-17T05:57:07;25.03;;;5.80;;
10588;SDS011;5342;55.676;13.346;2022-10-17T05:59:34;14.83;;;5.90;;
10588;SDS011;5342;55.676;13.346;2022-10-17T06:02:00;18.37;;;7.90;;
10588;SDS011;5342;55.676;13.346;2022-10-17T06:04:26;15.87;;;7.47;;
10588;SDS011;5342;55.676;13.346;2022-10-17T06:06:53;24.97;;;7.87;;
10588;SDS011;5342;55.676;13.346;2022-10-17T06:09:21;23.93;;;6.93;;
10588;SDS011;5342;55.676;13.346;2022-10-17T06:11:49;12.97;;;6.77;;
10588;SDS011;5342;55.676;13.346;2022-10-17T06:14:15;13.67;;;6.47;;
10588;SDS011;5342;55.676;13.346;2022-10-17T06:16:42;20.17;;;7.17;;
10588;SDS011;5342;55.676;13.346;2022-10-17T06:19:08;14.47;;;6.77;;
10588;SDS011;5342;55.676;13.346;2022-10-17T06:21:36;18.77;;;6.77;;
10588;SDS011;5342;55.676;13.346;2022-10-17T06:24:03;19.73;;;6.53;;
10588;SDS011;5342;55.676;13.346;2022-10-17T06:26:30;18.43;;;6.87;;
10588;SDS011;5342;55.676;13.346;2022-10-17T06:28:57;15.30;;;6.30;;
10588;SDS011;5342;55.676;13.346;2022-10-17T06:31:23;12.60;;;6.97;;
10588;SDS011;5342;55.676;13.346;2022-10-17T06:33:50;23.40;;;8.50;;
10588;SDS011;5342;55.676;13.346;2022-10-17T06:36:16;23.40;;;9.27;;
10588;SDS011;5342;55.676;13.346;2022-10-17T06:38:43;19.73;;;10.07;;
10588;SDS011;5342;55.676;13.346;2022-10-17T06:41:10;19.17;;;10.13;;
10588;SDS011;5342;55.676;13.346;2022-10-17T06:43:39;20.90;;;11.20;;
10588;SDS011;5342;55.676;13.346;2022-10-17T06:46:07;37.47;;;11.13;;
10588;SDS011;5342;55.676;13.346;2022-10-17T06:48:34;27.47;;;10.97;;
10588;SDS011;5342;55.676;13.346;2022-10-17T06:51:04;30.50;;;11.03;;
10588;SDS011;5342;55.676;13.346;2022-10-17T06:53:32;30.50;;;10.50;;
10588;SDS011;5342;55.676;13.346;2022-10-17T06:55:59;28.60;;;11.50;;
10588;SDS011;5342;55.676;13.346;2022-10-17T06:58:28;21.83;;;11.43;;
10588;SDS011;5342;55.676;13.346;2022-10-17T07:00:58;33.53;;;10.17;;
10588;SDS011;5342;55.676;13.346;2022-10-17T07:03:25;26.70;;;9.83;;
10588;SDS011;5342;55.676;13.346;2022-10-17T07:05:52;22.17;;;9.27;;
10588;SDS011;5342;55.676;13.346;2022-10-17T07:08:19;24.07;;;9.07;;
10588;SDS011;5342;55.676;13.346;2022-10-17T07:10:45;24.23;;;9.37;;
10588;SDS011;5342;55.676;13.346;2022-10-17T07:13:12;23.00;;;9.57;;
10588;SDS011;5342;55.676;13.346;2022-10-17T07:15:39;22.37;;;8.03;;
10588;SDS011;5342;55.676;13.346;2022-10-17T07:18:05;21.60;;;7.20;;
10588;SDS011;5342;55.676;13.346;2022-10-17T07:20:32;18.73;;;9.03;;
10588;SDS011;5342;55.676;13.346;2022-10-17T07:22:59;14.27;;;6.00;;
10588;SDS011;5342;55.676;13.346;2022-10-17T07:25:25;16.73;;;4.43;;
10588;SDS011;5342;55.676;13.346;2022-10-17T07:27:51;12.77;;;3.50;;
10588;SDS011;5342;55.676;13.346;2022-10-17T07:30:18;17.37;;;3.87;;
10588;SDS011;5342;55.676;13.346;2022-10-17T07:32:44;12.33;;;3.13;;
10588;SDS011;5342;55.676;13.346;2022-10-17T07:35:11;11.90;;;2.97;;
10588;SDS011;5342;55.676;13.346;2022-10-17T07:37:37;11.90;;;2.90;;
10588;SDS011;5342;55.676;13.346;2022-10-17T07:40:04;13.57;;;2.93;;
10588;SDS011;5342;55.676;13.346;2022-10-17T07:42:32;12.57;;;3.20;;
10588;SDS011;5342;55.676;13.346;2022-10-17T07:45:01;8.47;;;3.00;;
10588;SDS011;5342;55.676;13.346;2022-10-17T07:47:27;11.73;;;2.97;;
10588;SDS011;5342;55.676;13.346;2022-10-17T07:49:55;9.20;;;2.73;;
10588;SDS011;5342;55.676;13.346;2022-10-17T07:52:22;10.73;;;2.80;;
10588;SDS011;5342;55.676;13.346;2022-10-17T07:54:48;12.57;;;3.03;;
10588;SDS011;5342;55.676;13.346;2022-10-17T07:57:14;10.60;;;2.97;;
10588;SDS011;5342;55.676;13.346;2022-10-17T07:59:41;12.53;;;3.23;;
10588;SDS011;5342;55.676;13.346;2022-10-17T08:02:08;12.13;;;2.37;;
10588;SDS011;5342;55.676;13.346;2022-10-17T08:04:53;18.13;;;2.93;;
10588;SDS011;5342;55.676;13.346;2022-10-17T08:07:19;8.73;;;2.47;;
10588;SDS011;5342;55.676;13.346;2022-10-17T08:09:46;9.70;;;2.87;;
10588;SDS011;5342;55.676;13.346;2022-10-17T08:12:13;11.73;;;2.23;;
10588;SDS011;5342;55.676;13.346;2022-10-17T08:14:40;15.20;;;3.23;;
10588;SDS011;5342;55.676;13.346;2022-10-17T08:17:07;11.00;;;3.03;;
10588;SDS011;5342;55.676;13.346;2022-10-17T08:19:36;13.43;;;3.53;;
10588;SDS011;5342;55.676;13.346;2022-10-17T08:22:04;10.67;;;3.03;;
10588;SDS011;5342;55.676;13.346;2022-10-17T08:24:30;8.90;;;2.33;;
10588;SDS011;5342;55.676;13.346;2022-10-17T08:26:56;10.20;;;3.33;;
10588;SDS011;5342;55.676;13.346;2022-10-17T08:29:23;13.00;;;2.70;;
10588;SDS011;5342;55.676;13.346;2022-10-17T08:31:49;7.13;;;2.70;;
10588;SDS011;5342;55.676;13.346;2022-10-17T08:34:16;12.27;;;3.50;;
10588;SDS011;5342;55.676;13.346;2022-10-17T08:36:42;14.77;;;2.57;;
10588;SDS011;5342;55.676;13.346;2022-10-17T08:39:08;11.07;;;2.27;;
10588;SDS011;5342;55.676;13.346;2022-10-17T08:41:47;7.87;;;2.57;;
10588;SDS011;5342;55.676;13.346;2022-10-17T08:47:28;10.13;;;2.70;;
10588;SDS011;5342;55.676;13.346;2022-10-17T08:50:04;13.90;;;3.07;;
10588;SDS011;5342;55.676;13.346;2022-10-17T08:52:44;10.27;;;3.13;;
10588;SDS011;5342;55.676;13.346;2022-10-17T08:55:34;8.60;;;2.30;;
10588;SDS011;5342;55.676;13.346;2022-10-17T08:58:11;10.13;;;2.50;;
10588;SDS011;5342;55.676;13.346;2022-10-17T09:00:39;7.70;;;2.47;;
10588;SDS011;5342;55.676;13.346;2022-10-17T09:03:14;7.40;;;2.20;;
10588;SDS011;5342;55.676;13.346;2022-10-17T09:05:54;8.17;;;2.10;;
10588;SDS011;5342;55.676;13.346;2022-10-17T09:08:33;10.23;;;2.20;;
10588;SDS011;5342;55.676;13.346;2022-10-17T09:11:08;10.77;;;3.10;;
10588;SDS011;5342;55.676;13.346;2022-10-17T09:16:30;10.53;;;2.60;;
10588;SDS011;5342;55.676;13.346;2022-10-17T09:19:23;12.57;;;2.70;;
10588;SDS011;5342;55.676;13.346;2022-10-17T09:21:57;6.17;;;2.00;;
10588;SDS011;5342;55.676;13.346;2022-10-17T09:30:14;8.30;;;2.53;;
10588;SDS011;5342;55.676;13.346;2022-10-17T09:32:44;9.93;;;3.00;;
10588;SDS011;5342;55.676;13.346;2022-10-17T09:35:15;6.00;;;2.17;;
10588;SDS011;5342;55.676;13.346;2022-10-17T09:37:41;11.53;;;2.90;;
10588;SDS011;5342;55.676;13.346;2022-10-17T09:40:15;10.00;;;2.60;;
10588;SDS011;5342;55.676;13.346;2022-10-17T09:42:46;9.00;;;2.97;;
10588;SDS011;5342;55.676;13.346;2022-10-17T09:45:16;6.63;;;2.17;;
10588;SDS011;5342;55.676;13.346;2022-10-17T09:50:41;7.00;;;2.13;;
10588;SDS011;5342;55.676;13.346;2022-10-17T09:53:21;7.53;;;2.63;;
10588;SDS011;5342;55.676;13.346;2022-10-17T09:55:59;7.37;;;2.10;;
10588;SDS011;5342;55.676;13.346;2022-10-17T09:58:40;12.00;;;2.67;;
10588;SDS011;5342;55.676;13.346;2022-10-17T10:04:10;8.57;;;2.40;;
10588;SDS011;5342;55.676;13.346;2022-10-17T10:06:43;5.80;;;2.10;;
10588;SDS011;5342;55.676;13.346;2022-10-17T10:09:31;7.37;;;2.20;;
10588;SDS011;5342;55.676;13.346;2022-10-17T10:12:06;7.83;;;2.33;;
10588;SDS011;5342;55.676;13.346;2022-10-17T10:14:46;4.30;;;2.33;;
10588;SDS011;5342;55.676;13.346;2022-10-17T10:23:10;9.13;;;2.50;;
10588;SDS011;5342;55.676;13.346;2022-10-17T10:25:54;6.23;;;1.67;;
10588;SDS011;5342;55.676;13.346;2022-10-17T10:28:22;6.10;;;1.73;;
10588;SDS011;5342;55.676;13.346;2022-10-17T10:30:51;6.13;;;1.90;;
10588;SDS011;5342;55.676;13.346;2022-10-17T10:33:21;7.07;;;1.70;;
10588;SDS011;5342;55.676;13.346;2022-10-17T10:36:00;5.27;;;1.87;;
10588;SDS011;5342;55.676;13.346;2022-10-17T10:38:30;7.40;;;2.20;;
10588;SDS011;5342;55.676;13.346;2022-10-17T10:41:05;8.83;;;2.60;;
10588;SDS011;5342;55.676;13.346;2022-10-17T10:43:47;4.70;;;1.83;;
10588;SDS011;5342;55.676;13.346;2022-10-17T10:46:26;4.43;;;2.17;;
10588;SDS011;5342;55.676;13.346;2022-10-17T10:51:22;3.60;;;1.57;;
10588;SDS011;5342;55.676;13.346;2022-10-17T10:54:05;5.93;;;1.63;;
10588;SDS011;5342;55.676;13.346;2022-10-17T10:56:46;3.73;;;1.90;;
10588;SDS011;5342;55.676;13.346;2022-10-17T10:59:24;4.03;;;1.87;;
10588;SDS011;5342;55.676;13.346;2022-10-17T11:02:14;7.03;;;1.77;;
10588;SDS011;5342;55.676;13.346;2022-10-17T11:15:19;6.00;;;1.90;;
10588;SDS011;5342;55.676;13.346;2022-10-17T11:18:05;6.03;;;1.83;;
10588;SDS011;5342;55.676;13.346;2022-10-17T11:20:49;3.47;;;1.30;;
10588;SDS011;5342;55.676;13.346;2022-10-17T11:26:06;1.97;;;1.30;;
10588;SDS011;5342;55.676;13.346;2022-10-17T11:28:37;4.53;;;1.47;;
10588;SDS011;5342;55.676;13.346;2022-10-17T11:31:08;2.67;;;1.20;;
10588;SDS011;5342;55.676;13.346;2022-10-17T11:33:53;3.40;;;1.50;;
10588;SDS011;5342;55.676;13.346;2022-10-17T11:36:24;4.50;;;1.60;;
10588;SDS011;5342;55.676;13.346;2022-10-17T11:38:53;8.90;;;1.80;;
10588;SDS011;5342;55.676;13.346;2022-10-17T11:41:33;5.30;;;1.30;;
10588;SDS011;5342;55.676;13.346;2022-10-17T11:44:04;2.47;;;1.43;;
10588;SDS011;5342;55.676;13.346;2022-10-17T11:46:33;6.23;;;1.37;;
10588;SDS011;5342;55.676;13.346;2022-10-17T11:51:30;4.73;;;1.50;;
10588;SDS011;5342;55.676;13.346;2022-10-17T11:54:13;2.30;;;1.20;;
10588;SDS011;5342;55.676;13.346;2022-10-17T11:56:48;8.10;;;1.70;;
10588;SDS011;5342;55.676;13.346;2022-10-17T12:01:46;2.40;;;1.17;;
10588;SDS011;5342;55.676;13.346;2022-10-17T12:11:59;4.30;;;1.30;;
10588;SDS011;5342;55.676;13.346;2022-10-17T12:17:01;2.30;;;1.10;;
10588;SDS011;5342;55.676;13.346;2022-10-17T12:19:29;4.90;;;1.10;;
10588;SDS011;5342;55.676;13.346;2022-10-17T12:21:58;4.23;;;1.10;;
10588;SDS011;5342;55.676;13.346;2022-10-17T12:27:19;1.93;;;1.30;;
10588;SDS011;5342;55.676;13.346;2022-10-17T12:29:44;3.50;;;1.40;;
10588;SDS011;5342;55.676;13.346;2022-10-17T12:32:12;3.27;;;1.83;;
10588;SDS011;5342;55.676;13.346;2022-10-17T12:34:49;3.93;;;1.80;;
10588;SDS011;5342;55.676;13.346;2022-10-17T12:37:34;2.60;;;1.60;;
10588;SDS011;5342;55.676;13.346;2022-10-17T12:40:02;2.90;;;1.70;;
10588;SDS011;5342;55.676;13.346;2022-10-17T12:42:30;3.70;;;1.87;;
10588;SDS011;5342;55.676;13.346;2022-10-17T12:44:57;3.00;;;1.70;;
10588;SDS011;5342;55.676;13.346;2022-10-17T12:47:27;2.70;;;1.70;;
10588;SDS011;5342;55.676;13.346;2022-10-17T12:50:02;3.53;;;1.87;;
10588;SDS011;5342;55.676;13.346;2022-10-17T13:00:57;3.90;;;2.60;;
10588;SDS011;5342;55.676;13.346;2022-10-17T13:03:05;7.60;;;2.70;;
10588;SDS011;5342;55.676;13.346;2022-10-17T13:05:34;4.40;;;2.40;;
10588;SDS011;5342;55.676;13.346;2022-10-17T13:08:02;3.70;;;2.47;;
10588;SDS011;5342;55.676;13.346;2022-10-17T13:10:31;3.73;;;2.67;;
10588;SDS011;5342;55.676;13.346;2022-10-17T13:13:04;4.07;;;3.20;;
10588;SDS011;5342;55.676;13.346;2022-10-17T13:15:31;3.93;;;2.40;;
10588;SDS011;5342;55.676;13.346;2022-10-17T13:17:59;3.03;;;2.73;;
10588;SDS011;5342;55.676;13.346;2022-10-17T13:20:26;5.07;;;3.30;;
10588;SDS011;5342;55.676;13.346;2022-10-17T13:22:54;5.30;;;2.77;;
10588;SDS011;5342;55.676;13.346;2022-10-17T13:25:22;3.83;;;2.97;;
10588;SDS011;5342;55.676;13.346;2022-10-17T13:27:49;4.37;;;3.30;;
10588;SDS011;5342;55.676;13.346;2022-10-17T13:32:48;6.03;;;3.20;;
10588;SDS011;5342;55.676;13.346;2022-10-17T13:35:20;7.10;;;3.57;;
10588;SDS011;5342;55.676;13.346;2022-10-17T13:37:47;6.23;;;3.97;;
10588;SDS011;5342;55.676;13.346;2022-10-17T13:40:16;3.73;;;3.43;;
10588;SDS011;5342;55.676;13.346;2022-10-17T13:42:43;4.17;;;3.23;;
10588;SDS011;5342;55.676;13.346;2022-10-17T13:45:15;7.23;;;3.40;;
10588;SDS011;5342;55.676;13.346;2022-10-17T13:47:43;7.60;;;3.60;;
10588;SDS011;5342;55.676;13.346;2022-10-17T13:50:31;4.47;;;3.97;;
10588;SDS011;5342;55.676;13.346;2022-10-17T13:58:47;7.37;;;4.00;;
10588;SDS011;5342;55.676;13.346;2022-10-17T14:01:14;4.63;;;4.20;;
10588;SDS011;5342;55.676;13.346;2022-10-17T14:03:41;6.97;;;4.70;;
10588;SDS011;5342;55.676;13.346;2022-10-17T14:08:38;9.13;;;4.80;;
10588;SDS011;5342;55.676;13.346;2022-10-17T14:11:21;5.97;;;4.20;;
10588;SDS011;5342;55.676;13.346;2022-10-17T14:13:48;12.60;;;4.90;;
10588;SDS011;5342;55.676;13.346;2022-10-17T14:16:15;5.83;;;4.80;;
10588;SDS011;5342;55.676;13.346;2022-10-17T14:18:44;6.50;;;4.93;;
10588;SDS011;5342;55.676;13.346;2022-10-17T14:21:21;7.70;;;5.30;;
10588;SDS011;5342;55.676;13.346;2022-10-17T14:23:48;6.03;;;5.03;;
10588;SDS011;5342;55.676;13.346;2022-10-17T14:26:19;5.67;;;5.03;;
10588;SDS011;5342;55.676;13.346;2022-10-17T14:29:00;6.63;;;5.10;;
10588;SDS011;5342;55.676;13.346;2022-10-17T14:31:29;7.70;;;4.97;;
10588;SDS011;5342;55.676;13.346;2022-10-17T14:33:56;7.23;;;5.47;;
10588;SDS011;5342;55.676;13.346;2022-10-17T14:36:38;5.77;;;5.10;;
10588;SDS011;5342;55.676;13.346;2022-10-17T14:39:16;7.30;;;5.57;;
10588;SDS011;5342;55.676;13.346;2022-10-17T14:41:44;7.27;;;5.83;;
10588;SDS011;5342;55.676;13.346;2022-10-17T14:46:44;6.70;;;4.87;;
10588;SDS011;5342;55.676;13.346;2022-10-17T14:49:16;6.87;;;5.53;;
10588;SDS011;5342;55.676;13.346;2022-10-17T14:54:28;8.13;;;5.93;;
10588;SDS011;5342;55.676;13.346;2022-10-17T14:56:55;7.10;;;6.33;;
10588;SDS011;5342;55.676;13.346;2022-10-17T14:59:21;7.93;;;6.40;;
10588;SDS011;5342;55.676;13.346;2022-10-17T15:01:50;7.13;;;6.10;;
10588;SDS011;5342;55.676;13.346;2022-10-17T15:04:17;9.10;;;6.53;;
10588;SDS011;5342;55.676;13.346;2022-10-17T15:06:43;6.37;;;5.50;;
10588;SDS011;5342;55.676;13.346;2022-10-17T15:09:10;7.13;;;6.43;;
10588;SDS011;5342;55.676;13.346;2022-10-17T15:11:37;7.90;;;5.70;;
10588;SDS011;5342;55.676;13.346;2022-10-17T15:14:03;8.30;;;6.43;;
10588;SDS011;5342;55.676;13.346;2022-10-17T15:16:30;8.00;;;6.83;;
10588;SDS011;5342;55.676;13.346;2022-10-17T15:18:57;6.90;;;6.13;;
10588;SDS011;5342;55.676;13.346;2022-10-17T15:21:24;9.33;;;6.87;;
10588;SDS011;5342;55.676;13.346;2022-10-17T15:23:51;8.83;;;7.03;;
10588;SDS011;5342;55.676;13.346;2022-10-17T15:26:18;8.47;;;7.57;;
10588;SDS011;5342;55.676;13.346;2022-10-17T15:28:45;8.97;;;7.00;;
10588;SDS011;5342;55.676;13.346;2022-10-17T15:31:13;7.87;;;7.00;;
10588;SDS011;5342;55.676;13.346;2022-10-17T15:33:41;9.27;;;7.70;;
10588;SDS011;5342;55.676;13.346;2022-10-17T15:36:17;8.20;;;7.40;;
10588;SDS011;5342;55.676;13.346;2022-10-17T15:38:45;8.90;;;8.00;;
10588;SDS011;5342;55.676;13.346;2022-10-17T15:41:11;10.77;;;8.23;;
10588;SDS011;5342;55.676;13.346;2022-10-17T15:43:38;9.47;;;7.47;;
10588;SDS011;5342;55.676;13.346;2022-10-17T15:46:09;10.20;;;8.17;;
10588;SDS011;5342;55.676;13.346;2022-10-17T15:48:35;9.67;;;8.40;;
10588;SDS011;5342;55.676;13.346;2022-10-17T15:51:02;9.57;;;8.47;;
10588;SDS011;5342;55.676;13.346;2022-10-17T15:53:28;11.93;;;8.00;;
10588;SDS011;5342;55.676;13.346;2022-10-17T15:55:55;8.27;;;7.47;;
10588;SDS011;5342;55.676;13.346;2022-10-17T15:58:21;10.50;;;7.87;;
10588;SDS011;5342;55.676;13.346;2022-10-17T16:00:48;9.07;;;8.13;;
10588;SDS011;5342;55.676;13.346;2022-10-17T16:03:14;9.30;;;8.40;;
10588;SDS011;5342;55.676;13.346;2022-10-17T16:05:41;11.43;;;8.50;;
10588;SDS011;5342;55.676;13.346;2022-10-17T16:08:07;12.97;;;8.47;;
10588;SDS011;5342;55.676;13.346;2022-10-17T16:10:34;9.40;;;8.50;;
10588;SDS011;5342;55.676;13.346;2022-10-17T16:13:02;14.40;;;9.57;;
10588;SDS011;5342;55.676;13.346;2022-10-17T16:15:29;10.80;;;9.53;;
10588;SDS011;5342;55.676;13.346;2022-10-17T16:17:56;10.63;;;9.53;;
10588;SDS011;5342;55.676;13.346;2022-10-17T16:20:23;11.30;;;10.10;;
10588;SDS011;5342;55.676;13.346;2022-10-17T16:22:50;15.53;;;9.93;;
10588;SDS011;5342;55.676;13.346;2022-10-17T16:25:23;12.27;;;9.23;;
10588;SDS011;5342;55.676;13.346;2022-10-17T16:27:53;14.07;;;10.23;;
10588;SDS011;5342;55.676;13.346;2022-10-17T16:30:21;12.73;;;10.53;;
10588;SDS011;5342;55.676;13.346;2022-10-17T16:32:47;12.63;;;11.17;;
10588;SDS011;5342;55.676;13.346;2022-10-17T16:35:18;13.43;;;11.33;;
10588;SDS011;5342;55.676;13.346;2022-10-17T16:37:45;15.50;;;10.33;;
10588;SDS011;5342;55.676;13.346;2022-10-17T16:40:12;12.83;;;11.03;;
10588;SDS011;5342;55.676;13.346;2022-10-17T16:42:42;15.83;;;12.87;;
10588;SDS011;5342;55.676;13.346;2022-10-17T16:45:09;14.10;;;12.63;;
10588;SDS011;5342;55.676;13.346;2022-10-17T16:47:40;13.63;;;12.20;;
10588;SDS011;5342;55.676;13.346;2022-10-17T16:50:07;13.17;;;11.57;;
10588;SDS011;5342;55.676;13.346;2022-10-17T16:52:33;13.23;;;11.77;;
10588;SDS011;5342;55.676;13.346;2022-10-17T16:55:00;14.77;;;12.27;;
10588;SDS011;5342;55.676;13.346;2022-10-17T16:57:28;15.10;;;13.13;;